<?xml version="1.0" encoding="UTF-8"?><gpx version="1.0"><name>FlightAirMap GPX Feed</name><trk><name>AAL2122 American Airlines | N124US A320-214 (A320) | KPHX - KSAN</name><number>1</number><trkseg><trkpt lat="33.4339" lon="-112.011"><ele>1127</ele><time>2025-01-22T03:49:51+00:00</time></trkpt><trkpt lat="33.4339" lon="-112.011"><ele>1127</ele><time>2025-01-22T03:54:52+00:00</time></trkpt><trkpt lat="33.4336" lon="-112.012"><ele>1127</ele><time>2025-01-22T04:00:07+00:00</time></trkpt><trkpt lat="33.431" lon="-111.994"><ele>1137</ele><time>2025-01-22T04:04:51+00:00</time></trkpt><trkpt lat="33.4199" lon="-112.329"><ele>12849</ele><time>2025-01-22T04:09:51+00:00</time></trkpt><trkpt lat="33.3201" lon="-112.796"><ele>24602</ele><time>2025-01-22T04:14:52+00:00</time></trkpt><trkpt lat="33.1041" lon="-113.268"><ele>32724</ele><time>2025-01-22T04:19:52+00:00</time></trkpt><trkpt lat="32.8618" lon="-113.789"><ele>29682</ele><time>2025-01-22T04:24:52+00:00</time></trkpt><trkpt lat="32.7882" lon="-114.378"><ele>24476</ele><time>2025-01-22T04:30:27+00:00</time></trkpt><trkpt lat="32.8765" lon="-114.857"><ele>24486</ele><time>2025-01-22T04:34:53+00:00</time></trkpt><trkpt lat="32.8553" lon="-115.41"><ele>22201</ele><time>2025-01-22T04:39:53+00:00</time></trkpt><trkpt lat="32.7784" lon="-115.941"><ele>18168</ele><time>2025-01-22T04:44:53+00:00</time></trkpt><trkpt lat="32.7421" lon="-116.415"><ele>12311</ele><time>2025-01-22T04:49:53+00:00</time></trkpt><trkpt lat="32.699" lon="-116.845"><ele>5829</ele><time>2025-01-22T04:54:53+00:00</time></trkpt><trkpt lat="32.6993" lon="-116.875"><ele>2032</ele><time>2025-01-22T04:59:54+00:00</time></trkpt><trkpt lat="32.7145" lon="-117.111"><ele>1183</ele><time>2025-01-22T05:04:54+00:00</time></trkpt><trkpt lat="32.7378" lon="-117.206"><ele>18</ele><time>2025-01-22T05:09:54+00:00</time></trkpt><trkpt lat="32.7378" lon="-117.206"><ele>18</ele><time>2025-01-22T05:10:24+00:00</time></trkpt><trkpt lat="32.7378" lon="-117.206"><ele>18</ele><time>2025-01-22T05:10:24+00:00</time></trkpt><trkpt lat="32.7378" lon="-117.206"><ele>18</ele><time>2025-01-22T05:10:24+00:00</time></trkpt></trkseg></trk></gpx>